createdAt,value
2023-03-18T00:00:32.737Z,10.30
2023-03-18T00:03:00.434Z,10.30
2023-03-18T00:05:27.768Z,10.30
2023-03-18T00:07:54.965Z,10.30
2023-03-18T00:10:22.171Z,10.30
2023-03-18T00:12:49.759Z,10.30
2023-03-18T00:15:18.209Z,10.30
2023-03-18T00:17:46.705Z,10.30
2023-03-18T00:20:16.997Z,10.30
2023-03-18T00:22:45.366Z,10.30
2023-03-18T00:25:14.014Z,10.30
2023-03-18T00:27:41.706Z,10.30
2023-03-18T00:30:09.893Z,10.20
2023-03-18T00:32:38.711Z,10.20
2023-03-18T00:35:06.459Z,10.20
2023-03-18T00:37:35.660Z,10.20
2023-03-18T00:40:10.213Z,10.20
2023-03-18T00:42:42.607Z,10.20
2023-03-18T00:45:11.818Z,10.20
2023-03-18T00:47:39.696Z,10.10
2023-03-18T00:50:08.476Z,10.10
2023-03-18T00:52:37.310Z,10.10
2023-03-18T00:55:06.789Z,10.00
2023-03-18T00:57:35.362Z,10.00
2023-03-18T01:00:07.140Z,10.00
2023-03-18T01:02:34.806Z,10.00
2023-03-18T01:05:03.797Z,10.00
2023-03-18T01:07:31.174Z,9.90
2023-03-18T01:09:58.633Z,9.90
2023-03-18T01:12:25.865Z,9.90
2023-03-18T01:14:53.660Z,9.90
2023-03-18T01:17:21.062Z,9.90
2023-03-18T01:19:48.720Z,9.90
2023-03-18T01:22:16.342Z,9.90
2023-03-18T01:24:47.481Z,9.90
2023-03-18T01:27:15.868Z,9.80
2023-03-18T01:29:46.431Z,9.80
2023-03-18T01:32:18.650Z,9.80
2023-03-18T01:34:46.087Z,9.70
2023-03-18T01:37:13.699Z,9.70
2023-03-18T01:39:43.649Z,9.70
2023-03-18T01:42:22.067Z,9.70
2023-03-18T01:44:49.449Z,9.70
2023-03-18T01:47:17.365Z,9.60
2023-03-18T01:49:52.295Z,9.60
2023-03-18T01:52:24.726Z,9.60
2023-03-18T01:54:57.936Z,9.60
2023-03-18T01:57:26.083Z,9.60
2023-03-18T01:59:55.170Z,9.60
2023-03-18T02:02:24.087Z,9.60
2023-03-18T02:04:53.752Z,9.60
2023-03-18T02:07:27.878Z,9.60
2023-03-18T02:09:59.786Z,9.60
2023-03-18T02:12:36.619Z,9.60
2023-03-18T02:15:09.058Z,9.60
2023-03-18T02:17:41.392Z,9.60
2023-03-18T02:20:32.202Z,9.60
2023-03-18T02:23:22.764Z,9.60
2023-03-18T02:25:57.262Z,9.50
2023-03-18T02:28:29.746Z,9.50
2023-03-18T02:31:01.459Z,9.50
2023-03-18T02:33:34.648Z,9.50
2023-03-18T02:36:10.921Z,9.40
2023-03-18T02:38:45.415Z,9.40
2023-03-18T02:41:20.908Z,9.40
2023-03-18T02:43:49.548Z,9.40
2023-03-18T02:46:47.526Z,9.40
2023-03-18T02:49:15.571Z,9.40
2023-03-18T02:51:42.867Z,9.40
2023-03-18T02:54:15.879Z,9.30
2023-03-18T02:56:43.800Z,9.30
2023-03-18T02:59:13.048Z,9.30
2023-03-18T03:01:42.862Z,9.30
2023-03-18T03:04:12.235Z,9.20
2023-03-18T03:06:40.495Z,9.20
2023-03-18T03:09:10.007Z,9.20
2023-03-18T03:11:37.575Z,9.20
2023-03-18T03:14:15.555Z,9.20
2023-03-18T03:16:44.273Z,9.20
2023-03-18T03:19:11.718Z,9.20
2023-03-18T03:21:38.981Z,9.20
2023-03-18T03:24:07.646Z,9.20
2023-03-18T03:26:35.915Z,9.20
2023-03-18T03:29:05.154Z,9.20
2023-03-18T03:31:33.200Z,9.20
2023-03-18T03:34:00.648Z,9.20
2023-03-18T03:36:27.994Z,9.10
2023-03-18T03:38:57.067Z,9.10
2023-03-18T03:41:24.375Z,9.10
2023-03-18T03:43:52.050Z,9.10
2023-03-18T03:46:19.458Z,9.10
2023-03-18T03:48:47.969Z,9.10
2023-03-18T03:51:15.466Z,9.10
2023-03-18T03:53:43.725Z,9.10
2023-03-18T03:56:11.684Z,9.00
2023-03-18T03:58:39.448Z,9.00
2023-03-18T04:01:07.063Z,9.00
2023-03-18T04:03:34.717Z,9.00
2023-03-18T04:06:06.633Z,9.00
2023-03-18T04:08:36.178Z,8.90
2023-03-18T04:11:04.511Z,8.90
2023-03-18T04:13:32.064Z,8.90
2023-03-18T04:16:00.011Z,8.90
2023-03-18T04:18:27.402Z,8.80
2023-03-18T04:20:55.040Z,8.80
2023-03-18T04:23:36.185Z,8.70
2023-03-18T04:26:05.262Z,8.70
2023-03-18T04:28:33.359Z,8.70
2023-03-18T04:31:01.605Z,8.60
2023-03-18T04:33:28.895Z,8.60
2023-03-18T04:35:58.054Z,8.60
2023-03-18T04:38:25.850Z,8.50
2023-03-18T04:40:54.046Z,8.50
2023-03-18T04:43:22.173Z,8.50
2023-03-18T04:45:51.723Z,8.50
2023-03-18T04:48:18.962Z,8.40
2023-03-18T04:50:46.948Z,8.40
2023-03-18T04:53:19.988Z,8.40
2023-03-18T04:55:50.700Z,8.30
2023-03-18T04:58:19.496Z,8.30
2023-03-18T05:00:59.505Z,8.30
2023-03-18T05:03:34.473Z,8.20
2023-03-18T05:06:02.496Z,8.20
2023-03-18T05:08:39.706Z,8.20
2023-03-18T05:11:07.649Z,8.10
2023-03-18T05:13:37.382Z,8.10
2023-03-18T05:16:06.572Z,8.10
2023-03-18T05:18:34.778Z,8.10
2023-03-18T05:21:05.113Z,8.00
2023-03-18T05:23:32.530Z,8.00
2023-03-18T05:26:00.042Z,8.00
2023-03-18T05:28:29.599Z,8.00
2023-03-18T05:31:21.332Z,7.90
2023-03-18T05:33:48.847Z,7.90
2023-03-18T05:36:16.767Z,7.90
2023-03-18T05:38:55.277Z,7.90
2023-03-18T05:41:24.224Z,7.90
2023-03-18T05:43:52.790Z,7.90
2023-03-18T05:46:20.996Z,7.90
2023-03-18T05:48:57.928Z,8.00
2023-03-18T05:51:30.522Z,8.00
2023-03-18T05:53:58.143Z,8.00
2023-03-18T05:56:31.288Z,8.00
2023-03-18T05:59:01.247Z,8.00
2023-03-18T06:01:41.260Z,8.10
2023-03-18T06:04:08.894Z,8.10
2023-03-18T06:06:40.254Z,8.20
2023-03-18T06:09:12.184Z,8.30
2023-03-18T06:11:41.906Z,8.30
2023-03-18T06:14:09.371Z,8.30
2023-03-18T06:16:37.412Z,8.40
2023-03-18T06:19:05.621Z,8.40
2023-03-18T06:21:33.100Z,8.40
2023-03-18T06:24:01.639Z,8.50
2023-03-18T06:26:29.941Z,8.60
2023-03-18T06:28:58.322Z,8.60
2023-03-18T06:31:26.296Z,8.60
2023-03-18T06:33:53.929Z,8.70
2023-03-18T06:36:23.177Z,8.70
2023-03-18T06:38:53.307Z,8.80
2023-03-18T06:41:22.623Z,8.90
2023-03-18T06:44:11.096Z,8.90
2023-03-18T06:46:38.952Z,9.00
2023-03-18T06:49:06.451Z,9.10
2023-03-18T06:51:38.660Z,9.10
2023-03-18T06:54:06.057Z,9.20
2023-03-18T06:56:37.430Z,9.20
2023-03-18T06:59:13.816Z,9.30
2023-03-18T07:01:41.431Z,9.40
2023-03-18T07:04:08.976Z,9.50
2023-03-18T07:06:37.127Z,9.50
2023-03-18T07:09:04.378Z,9.60
2023-03-18T07:11:31.641Z,9.70
2023-03-18T07:14:03.493Z,9.80
2023-03-18T07:16:34.071Z,9.90
2023-03-18T07:19:02.016Z,10.10
2023-03-18T07:21:31.049Z,10.30
2023-03-18T07:23:58.299Z,10.50
2023-03-18T07:26:26.163Z,10.70
2023-03-18T07:28:53.484Z,11.00
2023-03-18T07:31:20.764Z,11.30
2023-03-18T07:33:48.726Z,11.60
2023-03-18T07:36:16.535Z,11.80
2023-03-18T07:38:44.029Z,12.10
2023-03-18T07:41:12.539Z,12.20
2023-03-18T07:43:40.231Z,12.30
2023-03-18T07:46:07.901Z,12.50
2023-03-18T07:48:35.462Z,12.60
2023-03-18T07:51:02.917Z,12.80
2023-03-18T07:53:30.154Z,12.80
2023-03-18T07:55:57.440Z,12.90
2023-03-18T07:58:25.683Z,13.10
2023-03-18T08:00:53.302Z,13.30
2023-03-18T08:03:20.816Z,13.40
2023-03-18T08:05:48.173Z,13.50
2023-03-18T08:08:15.636Z,13.60
2023-03-18T08:10:43.212Z,13.60
2023-03-18T08:13:10.774Z,13.50
2023-03-18T08:15:38.301Z,13.60
2023-03-18T08:18:08.799Z,13.60
2023-03-18T08:20:36.643Z,13.70
2023-03-18T08:23:04.113Z,13.70
2023-03-18T08:25:32.661Z,13.70
2023-03-18T08:28:00.287Z,13.80
2023-03-18T08:30:28.788Z,13.80
2023-03-18T08:32:57.235Z,13.70
2023-03-18T08:35:25.766Z,13.70
2023-03-18T08:37:53.887Z,13.70
2023-03-18T08:40:21.269Z,13.70
2023-03-18T08:42:48.622Z,13.80
2023-03-18T08:45:16.975Z,13.90
2023-03-18T08:47:44.369Z,13.90
2023-03-18T08:50:13.582Z,13.90
2023-03-18T08:52:41.233Z,14.00
2023-03-18T08:55:09.707Z,14.10
2023-03-18T08:57:37.813Z,14.20
2023-03-18T09:00:06.423Z,14.30
2023-03-18T09:02:33.836Z,14.40
2023-03-18T09:05:01.104Z,14.50
2023-03-18T09:07:28.513Z,14.60
2023-03-18T09:09:55.884Z,14.70
2023-03-18T09:12:23.281Z,14.70
2023-03-18T09:14:50.524Z,14.80
2023-03-18T09:17:18.299Z,14.80
2023-03-18T09:19:46.124Z,14.90
2023-03-18T09:22:13.503Z,14.90
2023-03-18T09:24:41.543Z,14.90
2023-03-18T09:27:08.994Z,14.90
2023-03-18T09:29:36.546Z,15.00
2023-03-18T09:32:04.029Z,15.00
2023-03-18T09:34:31.665Z,15.10
2023-03-18T09:36:59.097Z,15.10
2023-03-18T09:39:27.163Z,15.10
2023-03-18T09:42:05.722Z,15.20
2023-03-18T09:44:36.698Z,15.30
2023-03-18T09:47:28.266Z,15.40
2023-03-18T09:50:21.692Z,15.50
2023-03-18T09:53:05.250Z,15.60
2023-03-18T09:55:41.107Z,15.70
2023-03-18T09:58:28.018Z,15.80
2023-03-18T10:01:07.213Z,15.90
2023-03-18T10:03:43.720Z,16.10
2023-03-18T10:06:21.203Z,16.20
2023-03-18T10:09:06.478Z,16.20
2023-03-18T10:11:36.401Z,16.30
2023-03-18T10:14:31.593Z,16.40
2023-03-18T10:17:19.647Z,16.40
2023-03-18T10:19:58.543Z,16.50
2023-03-18T10:22:44.491Z,16.60
2023-03-18T10:25:37.074Z,16.60
2023-03-18T10:28:18.378Z,16.70
2023-03-18T10:31:04.569Z,16.80
2023-03-18T10:33:56.798Z,16.80
2023-03-18T10:36:28.348Z,16.90
2023-03-18T10:38:57.371Z,16.90
2023-03-18T10:41:34.435Z,17.00
2023-03-18T10:44:15.547Z,17.10
2023-03-18T10:46:44.359Z,17.20
2023-03-18T10:49:27.570Z,17.30
2023-03-18T10:52:01.748Z,17.30
2023-03-18T10:54:37.172Z,17.40
2023-03-18T10:57:04.952Z,17.40
2023-03-18T10:59:34.501Z,17.40
2023-03-18T11:02:06.214Z,17.50
2023-03-18T11:04:42.349Z,17.50
2023-03-18T11:07:18.663Z,17.70
2023-03-18T11:09:47.093Z,17.70
2023-03-18T11:12:23.477Z,17.90
2023-03-18T11:14:51.542Z,17.90
2023-03-18T11:17:31.026Z,17.90
2023-03-18T11:20:13.122Z,18.00
2023-03-18T11:22:45.611Z,18.00
2023-03-18T11:25:18.917Z,18.00
2023-03-18T11:27:52.173Z,18.00
2023-03-18T11:30:33.998Z,18.00
2023-03-18T11:33:14.370Z,18.00
2023-03-18T11:36:14.387Z,18.10
2023-03-18T11:38:43.098Z,18.10
2023-03-18T11:41:27.678Z,18.10
2023-03-18T11:44:16.175Z,18.10
2023-03-18T11:46:52.248Z,18.20
2023-03-18T11:49:25.914Z,18.20
2023-03-18T11:52:03.459Z,18.20
2023-03-18T11:54:49.189Z,18.30
2023-03-18T11:57:32.256Z,18.30
2023-03-18T12:00:45.672Z,18.40
2023-03-18T12:03:31.998Z,18.40
2023-03-18T12:06:08.594Z,18.50
2023-03-18T12:09:06.637Z,18.50
2023-03-18T12:11:59.331Z,18.60
2023-03-18T12:14:44.618Z,18.70
2023-03-18T12:17:30.502Z,18.70
2023-03-18T12:20:21.593Z,18.80
2023-03-18T12:23:39.280Z,18.90
2023-03-18T12:26:31.035Z,18.90
2023-03-18T12:29:28.455Z,19.00
2023-03-18T12:32:33.892Z,19.00
2023-03-18T12:35:25.998Z,19.10
2023-03-18T12:38:14.286Z,19.10
2023-03-18T12:40:44.305Z,19.10
2023-03-18T12:43:43.734Z,19.10
2023-03-18T12:46:31.841Z,19.10
2023-03-18T12:49:22.274Z,19.10
2023-03-18T12:52:11.002Z,19.10
2023-03-18T12:54:53.895Z,19.10
2023-03-18T12:57:55.010Z,19.10
2023-03-18T13:01:07.130Z,19.10
2023-03-18T13:03:40.876Z,19.20
2023-03-18T13:06:27.559Z,19.20
2023-03-18T13:09:13.381Z,19.30
2023-03-18T13:11:56.568Z,19.40
2023-03-18T13:14:46.243Z,19.40
2023-03-18T13:17:23.448Z,19.40
2023-03-18T13:19:51.108Z,19.50
2023-03-18T13:22:33.771Z,19.50
2023-03-18T13:25:13.684Z,19.50
2023-03-18T13:28:05.540Z,19.60
2023-03-18T13:30:51.585Z,19.60
2023-03-18T13:33:27.115Z,19.60
2023-03-18T13:36:06.586Z,19.60
2023-03-18T13:39:08.431Z,19.60
2023-03-18T13:42:02.138Z,19.60
2023-03-18T13:44:45.204Z,19.60
2023-03-18T13:47:18.759Z,19.70
2023-03-18T13:49:47.318Z,19.70
2023-03-18T13:52:42.761Z,19.70
2023-03-18T13:55:42.746Z,19.70
2023-03-18T13:58:19.260Z,19.70
2023-03-18T14:01:25.393Z,19.60
2023-03-18T14:03:55.516Z,19.70
2023-03-18T14:06:39.353Z,19.70
2023-03-18T14:09:23.353Z,19.70
2023-03-18T14:11:52.716Z,19.70
2023-03-18T14:15:24.413Z,19.70
2023-03-18T14:17:58.622Z,19.80
2023-03-18T14:20:36.845Z,19.70
2023-03-18T14:23:23.006Z,19.80
2023-03-18T14:25:59.363Z,19.80
2023-03-18T14:28:26.847Z,19.80
2023-03-18T14:31:14.687Z,19.90
2023-03-18T14:34:02.789Z,19.90
2023-03-18T14:36:55.449Z,19.90
2023-03-18T14:39:46.422Z,19.90
2023-03-18T14:42:27.178Z,19.90
2023-03-18T14:45:05.115Z,19.90
2023-03-18T14:47:44.369Z,19.90
2023-03-18T14:50:24.414Z,19.90
2023-03-18T14:53:15.168Z,19.90
2023-03-18T14:55:43.762Z,19.90
2023-03-18T14:58:21.264Z,19.90
2023-03-18T15:01:10.803Z,19.90
2023-03-18T15:03:42.368Z,19.90
2023-03-18T15:06:19.273Z,19.90
2023-03-18T15:08:56.652Z,20.00
2023-03-18T15:11:24.596Z,19.90
2023-03-18T15:13:54.807Z,19.90
2023-03-18T15:16:24.097Z,19.90
2023-03-18T15:18:53.821Z,19.90
2023-03-18T15:21:28.912Z,19.90
2023-03-18T15:24:01.201Z,19.80
2023-03-18T15:26:35.098Z,19.80
2023-03-18T15:29:26.246Z,19.80
2023-03-18T15:31:54.685Z,19.80
2023-03-18T15:34:27.706Z,19.80
2023-03-18T15:36:57.365Z,19.80
2023-03-18T15:39:27.483Z,19.70
2023-03-18T15:41:57.051Z,19.70
2023-03-18T15:44:29.787Z,19.70
2023-03-18T15:47:32.257Z,19.60
2023-03-18T15:50:09.459Z,19.60
2023-03-18T15:52:42.838Z,19.60
2023-03-18T15:55:47.466Z,19.50
2023-03-18T15:58:35.170Z,19.50
2023-03-18T16:01:02.719Z,19.50
2023-03-18T16:03:33.689Z,19.40
2023-03-18T16:06:02.102Z,19.40
2023-03-18T16:08:30.523Z,19.30
2023-03-18T16:11:02.055Z,19.30
2023-03-18T16:13:34.966Z,19.20
2023-03-18T16:16:03.525Z,19.20
2023-03-18T16:18:32.500Z,19.10
2023-03-18T16:21:00.471Z,19.10
2023-03-18T16:23:27.664Z,19.00
2023-03-18T16:25:56.152Z,19.00
2023-03-18T16:28:25.953Z,18.90
2023-03-18T16:30:55.721Z,18.90
2023-03-18T16:33:23.748Z,18.80
2023-03-18T16:35:59.189Z,18.80
2023-03-18T16:38:28.271Z,18.70
2023-03-18T16:40:57.322Z,18.70
2023-03-18T16:43:27.961Z,18.60
2023-03-18T16:46:05.978Z,18.50
2023-03-18T16:48:33.719Z,18.50
2023-03-18T16:51:02.878Z,18.40
2023-03-18T16:53:31.674Z,18.40
2023-03-18T16:56:16.388Z,18.30
2023-03-18T16:58:44.511Z,18.20
2023-03-18T17:01:16.477Z,18.20
2023-03-18T17:03:44.229Z,18.10
2023-03-18T17:06:13.214Z,18.00
2023-03-18T17:08:40.987Z,17.90
2023-03-18T17:11:15.517Z,17.80
2023-03-18T17:13:42.942Z,17.80
2023-03-18T17:16:18.054Z,17.70
2023-03-18T17:18:45.735Z,17.60
2023-03-18T17:21:13.318Z,17.50
2023-03-18T17:23:41.619Z,17.40
2023-03-18T17:26:14.781Z,17.40
2023-03-18T17:28:45.279Z,17.30
2023-03-18T17:31:13.655Z,17.20
2023-03-18T17:33:41.656Z,17.10
2023-03-18T17:36:09.473Z,17.00
2023-03-18T17:38:37.200Z,17.00
2023-03-18T17:41:12.435Z,16.90
2023-03-18T17:43:40.153Z,16.80
2023-03-18T17:46:07.886Z,16.70
2023-03-18T17:48:37.229Z,16.60
2023-03-18T17:51:07.721Z,16.50
2023-03-18T17:53:41.768Z,16.40
2023-03-18T17:56:13.887Z,16.30
2023-03-18T17:58:44.511Z,16.20
2023-03-18T18:01:18.780Z,16.10
2023-03-18T18:03:47.652Z,16.00
2023-03-18T18:06:23.955Z,15.90
2023-03-18T18:08:51.438Z,15.80
2023-03-18T18:11:33.146Z,15.70
2023-03-18T18:14:23.494Z,15.70
2023-03-18T18:16:52.191Z,15.50
2023-03-18T18:19:20.497Z,15.40
2023-03-18T18:21:49.067Z,15.30
2023-03-18T18:24:30.757Z,15.20
2023-03-18T18:26:58.253Z,15.10
2023-03-18T18:29:28.265Z,15.00
2023-03-18T18:31:55.589Z,14.90
2023-03-18T18:34:23.167Z,14.80
2023-03-18T18:36:51.113Z,14.80
2023-03-18T18:39:19.107Z,14.70
2023-03-18T18:41:46.532Z,14.60
2023-03-18T18:44:14.209Z,14.50
2023-03-18T18:46:41.695Z,14.50
2023-03-18T18:49:22.547Z,14.40
2023-03-18T18:51:53.585Z,14.40
2023-03-18T18:54:24.690Z,14.30
2023-03-18T18:56:52.451Z,14.20
2023-03-18T18:59:26.520Z,14.10
2023-03-18T19:01:55.397Z,14.00
2023-03-18T19:04:23.733Z,14.00
2023-03-18T19:06:52.322Z,13.90
2023-03-18T19:09:25.837Z,13.80
2023-03-18T19:11:55.964Z,13.80
2023-03-18T19:14:28.463Z,13.70
2023-03-18T19:16:58.551Z,13.70
2023-03-18T19:19:31.916Z,13.60
2023-03-18T19:21:59.156Z,13.60
2023-03-18T19:24:36.912Z,13.60
2023-03-18T19:27:09.822Z,13.60
2023-03-18T19:29:37.231Z,13.60
2023-03-18T19:32:06.137Z,13.50
2023-03-18T19:34:35.181Z,13.50
2023-03-18T19:37:07.803Z,13.50
2023-03-18T19:39:35.219Z,13.50
2023-03-18T19:42:02.592Z,13.40
2023-03-18T19:44:29.897Z,13.30
2023-03-18T19:46:59.137Z,13.20
2023-03-18T19:49:33.650Z,13.10
2023-03-18T19:52:02.615Z,13.00
2023-03-18T19:54:32.257Z,12.90
2023-03-18T19:57:06.833Z,12.90
2023-03-18T19:59:39.327Z,12.80
2023-03-18T20:02:30.371Z,12.80
2023-03-18T20:05:01.031Z,12.70
2023-03-18T20:07:30.880Z,12.70
2023-03-18T20:09:58.329Z,12.60
2023-03-18T20:12:38.509Z,12.60
2023-03-18T20:15:12.527Z,12.60
2023-03-18T20:17:41.872Z,12.60
2023-03-18T20:20:17.022Z,12.50
2023-03-18T20:22:53.550Z,12.50
2023-03-18T20:25:28.446Z,12.50
2023-03-18T20:27:57.712Z,12.40
2023-03-18T20:30:37.220Z,12.40
2023-03-18T20:33:05.695Z,12.30
2023-03-18T20:35:38.863Z,12.40
2023-03-18T20:38:21.106Z,12.30
2023-03-18T20:40:48.293Z,12.30
2023-03-18T20:43:17.365Z,12.30
2023-03-18T20:45:45.416Z,12.40
2023-03-18T20:48:13.259Z,12.40
2023-03-18T20:50:41.581Z,12.40
2023-03-18T20:53:16.891Z,12.50
2023-03-18T20:55:44.633Z,12.50
2023-03-18T20:58:16.595Z,12.50
2023-03-18T21:00:45.343Z,12.50
2023-03-18T21:03:25.648Z,12.60
2023-03-18T21:05:57.808Z,12.60
2023-03-18T21:08:26.495Z,12.60
2023-03-18T21:10:55.274Z,12.60
2023-03-18T21:13:27.084Z,12.60
2023-03-18T21:15:56.004Z,12.60
2023-03-18T21:18:23.440Z,12.60
2023-03-18T21:20:50.971Z,12.60
2023-03-18T21:23:26.905Z,12.60
2023-03-18T21:25:55.483Z,12.60
2023-03-18T21:28:25.443Z,12.60
2023-03-18T21:30:57.861Z,12.60
2023-03-18T21:33:33.578Z,12.60
2023-03-18T21:36:01.612Z,12.60
2023-03-18T21:38:34.902Z,12.50
2023-03-18T21:41:02.651Z,12.50
2023-03-18T21:43:34.214Z,12.50
2023-03-18T21:46:03.059Z,12.40
2023-03-18T21:48:31.519Z,12.40
2023-03-18T21:50:59.676Z,12.30
2023-03-18T21:53:28.001Z,12.20
2023-03-18T21:55:55.643Z,12.20
2023-03-18T21:58:25.895Z,12.20
2023-03-18T22:00:58.935Z,12.10
2023-03-18T22:03:29.405Z,12.00
2023-03-18T22:05:57.466Z,12.00
2023-03-18T22:08:25.449Z,11.90
2023-03-18T22:10:53.017Z,11.90
2023-03-18T22:13:25.651Z,11.80
2023-03-18T22:15:54.623Z,11.80
2023-03-18T22:18:22.486Z,11.70
2023-03-18T22:20:51.192Z,11.70
2023-03-18T22:23:29.796Z,11.60
2023-03-18T22:25:58.164Z,11.60
2023-03-18T22:28:27.918Z,11.50
2023-03-18T22:30:55.740Z,11.50
2023-03-18T22:33:29.927Z,11.50
2023-03-18T22:35:57.633Z,11.40
2023-03-18T22:38:26.081Z,11.40
2023-03-18T22:40:56.644Z,11.40
2023-03-18T22:43:35.753Z,11.30
2023-03-18T22:46:06.937Z,11.30
2023-03-18T22:48:34.439Z,11.20
2023-03-18T22:51:03.135Z,11.20
2023-03-18T22:53:34.345Z,11.10
2023-03-18T22:56:11.246Z,11.10
2023-03-18T22:58:38.824Z,11.10
2023-03-18T23:01:06.570Z,11.10
2023-03-18T23:03:36.727Z,11.00
2023-03-18T23:06:04.201Z,11.00
2023-03-18T23:08:32.164Z,11.00
2023-03-18T23:11:01.682Z,11.00
2023-03-18T23:13:35.816Z,10.90
2023-03-18T23:16:06.003Z,10.90
2023-03-18T23:18:33.487Z,10.90
2023-03-18T23:21:01.637Z,10.80
2023-03-18T23:23:30.311Z,10.80
2023-03-18T23:25:57.834Z,10.70
2023-03-18T23:28:25.871Z,10.70
2023-03-18T23:30:53.444Z,10.70
2023-03-18T23:33:21.038Z,10.60
2023-03-18T23:35:48.902Z,10.60
2023-03-18T23:38:16.490Z,10.60
2023-03-18T23:40:44.149Z,10.50
2023-03-18T23:43:11.700Z,10.50
2023-03-18T23:45:39.689Z,10.40
2023-03-18T23:48:07.225Z,10.40
2023-03-18T23:50:34.696Z,10.30
2023-03-18T23:53:02.248Z,10.30
2023-03-18T23:55:37.178Z,10.20
2023-03-18T23:58:04.895Z,10.20
